Time;durP1;ratioP1;P1;durP2;ratioP2;P2;SDS_P1;SDS_P2;PMS_P1;PMS_P2;Temp;Humidity;BMP_temperature;BMP_pressure;BME280_temperature;BME280_humidity;BME280_pressure;Samples;Min_cycle;Max_cycle;Signal;HPM_P1;HPM_P2
2022/07/07 00:01:20;;;;;;;12.05;7.15;;;28.20;97.80;;;;;;1885044;75;21150;-77
2022/07/07 00:03:52;;;;;;;13.90;7.60;;;28.20;97.80;;;;;;1905954;75;21635;-77
2022/07/07 00:06:24;;;;;;;12.03;7.20;;;28.20;97.80;;;;;;1913780;74;21601;-79
2022/07/07 00:08:55;;;;;;;11.53;6.30;;;28.20;97.70;;;;;;1901062;75;21260;-76
2022/07/07 00:11:27;;;;;;;13.53;6.53;;;28.20;97.70;;;;;;1885368;75;21131;-77
2022/07/07 00:13:58;;;;;;;9.68;6.00;;;28.20;97.40;;;;;;1887524;75;21589;-76
2022/07/07 00:16:29;;;;;;;11.15;6.15;;;28.30;97.40;;;;;;1886796;75;21084;-77
2022/07/07 00:19:01;;;;;;;11.40;5.62;;;28.30;97.20;;;;;;1903673;74;21083;-76
2022/07/07 00:21:32;;;;;;;12.20;5.55;;;28.30;97.10;;;;;;1937441;74;21197;-76
2022/07/07 00:24:03;;;;;;;14.35;5.87;;;28.30;97.10;;;;;;1906163;74;21183;-76
2022/07/07 00:26:34;;;;;;;9.55;5.70;;;28.40;97.10;;;;;;1906417;75;21195;-77
2022/07/07 00:29:06;;;;;;;11.95;5.85;;;28.40;97.00;;;;;;1861642;76;21079;-77
2022/07/07 00:31:38;;;;;;;7.28;5.30;;;28.40;96.90;;;;;;1900447;74;21185;-77
2022/07/07 00:34:09;;;;;;;11.50;5.87;;;28.40;96.90;;;;;;1880399;75;22403;-76
2022/07/07 00:36:41;;;;;;;14.50;5.87;;;28.40;97.00;;;;;;1892851;75;21115;-74
2022/07/07 00:39:13;;;;;;;11.85;5.85;;;28.40;97.20;;;;;;1896149;75;21125;-73
2022/07/07 00:41:44;;;;;;;10.55;6.15;;;28.30;97.20;;;;;;1906794;75;21125;-71
2022/07/07 00:44:15;;;;;;;10.98;5.55;;;28.30;97.00;;;;;;1876467;75;21761;-73
2022/07/07 00:46:48;;;;;;;11.08;5.30;;;28.40;97.20;;;;;;1923514;74;21190;-72
2022/07/07 00:49:21;;;;;;;12.53;5.25;;;28.50;96.90;;;;;;1889114;74;21151;-73
2022/07/07 00:51:53;;;;;;;10.95;5.70;;;28.40;96.70;;;;;;1917492;74;21147;-72
2022/07/07 00:54:24;;;;;;;9.53;5.22;;;28.50;96.80;;;;;;1900770;74;21123;-73
2022/07/07 00:56:55;;;;;;;12.65;5.55;;;28.50;96.80;;;;;;1919067;74;21686;-73
2022/07/07 00:59:28;;;;;;;12.03;5.85;;;28.50;96.80;;;;;;1884131;74;21224;-72
2022/07/07 01:02:01;;;;;;;9.60;5.75;;;28.50;96.80;;;;;;1905769;74;21154;-72
2022/07/07 01:04:32;;;;;;;9.93;6.00;;;28.50;96.40;;;;;;1894357;74;21120;-71
2022/07/07 01:07:04;;;;;;;13.50;6.35;;;28.60;96.40;;;;;;1899833;74;22409;-74
2022/07/07 01:09:36;;;;;;;12.93;5.75;;;28.60;96.50;;;;;;1900432;74;21522;-74
2022/07/07 01:12:08;;;;;;;10.75;5.97;;;28.60;96.30;;;;;;1892377;74;21253;-70
2022/07/07 01:14:40;;;;;;;12.60;6.00;;;28.60;96.30;;;;;;1913215;73;21127;-72
2022/07/07 01:17:11;;;;;;;11.48;6.10;;;28.70;96.50;;;;;;1886804;75;21725;-71
2022/07/07 01:19:42;;;;;;;11.63;5.87;;;28.80;96.40;;;;;;1893229;75;21209;-71
2022/07/07 01:22:16;;;;;;;13.22;6.72;;;28.80;96.50;;;;;;1933773;73;22251;-72
2022/07/07 01:24:47;;;;;;;13.68;6.53;;;28.80;96.30;;;;;;1912849;74;21207;-71
2022/07/07 01:27:20;;;;;;;10.85;6.08;;;28.80;96.30;;;;;;1909635;74;21568;-73
2022/07/07 01:29:53;;;;;;;12.70;5.80;;;28.90;96.30;;;;;;1935012;73;21065;-73
2022/07/07 01:32:26;;;;;;;14.40;6.12;;;28.90;96.20;;;;;;1872169;75;21145;-73
2022/07/07 01:34:57;;;;;;;11.65;6.22;;;28.90;95.90;;;;;;1877224;75;21088;-74
2022/07/07 01:37:28;;;;;;;11.65;6.40;;;28.90;96.20;;;;;;1914944;73;22266;-72
2022/07/07 01:40:01;;;;;;;12.82;5.92;;;28.90;96.10;;;;;;1885687;75;21857;-71
2022/07/07 01:42:32;;;;;;;12.65;6.33;;;28.90;96.00;;;;;;1882993;75;21175;-73
2022/07/07 01:45:03;;;;;;;10.35;6.33;;;28.90;96.00;;;;;;1900978;73;21081;-83
2022/07/07 01:47:34;;;;;;;13.45;6.20;;;29.00;96.00;;;;;;1894491;75;21169;-80
2022/07/07 01:50:06;;;;;;;14.30;6.15;;;29.00;95.80;;;;;;1929846;73;21095;-81
2022/07/07 01:52:37;;;;;;;11.93;5.67;;;29.00;95.70;;;;;;1917673;73;21092;-80
2022/07/07 01:55:09;;;;;;;12.00;6.30;;;29.00;95.50;;;;;;1919683;73;21178;-82
2022/07/07 01:57:40;;;;;;;10.72;5.58;;;29.10;95.60;;;;;;1912776;73;21143;-80
2022/07/07 02:00:12;;;;;;;14.07;5.72;;;29.10;95.70;;;;;;1922511;73;21167;-80
2022/07/07 02:02:43;;;;;;;11.88;6.10;;;29.20;95.50;;;;;;1916558;73;21884;-80
2022/07/07 02:05:14;;;;;;;13.08;5.80;;;29.30;95.40;;;;;;1907555;74;21605;-81
2022/07/07 02:07:47;;;;;;;14.73;6.17;;;29.40;95.30;;;;;;1909365;73;21618;-83
2022/07/07 02:11:12;;;;;;;12.78;6.17;;;29.40;94.70;;;;;;1925590;73;21136;-81
2022/07/07 02:12:49;;;;;;;14.07;6.60;;;29.50;95.20;;;;;;1934084;73;21127;-81
2022/07/07 02:15:20;;;;;;;13.40;5.95;;;29.50;94.90;;;;;;1934217;73;21582;-79
2022/07/07 02:17:51;;;;;;;11.68;5.75;;;29.60;94.90;;;;;;1905679;74;21153;-81
2022/07/07 02:20:22;;;;;;;12.13;6.65;;;29.60;94.50;;;;;;1917786;73;21139;-81
2022/07/07 02:22:53;;;;;;;15.88;6.05;;;29.60;94.20;;;;;;1926544;73;21059;-80
2022/07/07 02:25:24;;;;;;;9.25;4.85;;;29.70;94.30;;;;;;1930592;73;21181;-80
2022/07/07 02:27:55;;;;;;;10.18;5.50;;;29.70;94.40;;;;;;1942680;73;21119;-81
2022/07/07 02:30:27;;;;;;;10.50;5.42;;;29.70;94.00;;;;;;1926642;73;21095;-79
2022/07/07 02:32:58;;;;;;;9.65;5.83;;;29.70;94.10;;;;;;1934002;73;21119;-79
2022/07/07 02:35:29;;;;;;;9.30;4.83;;;29.80;94.20;;;;;;1875492;75;21096;-78
2022/07/07 02:38:00;;;;;;;11.18;5.28;;;29.80;94.00;;;;;;1905383;75;21188;-79
2022/07/07 02:40:31;;;;;;;9.90;5.47;;;29.90;93.90;;;;;;1917947;74;21145;-80
2022/07/07 02:43:02;;;;;;;10.60;5.78;;;29.90;93.80;;;;;;1908080;74;21101;-80
2022/07/07 02:45:33;;;;;;;11.38;5.80;;;30.00;93.90;;;;;;1900762;73;21245;-79
2022/07/07 02:48:04;;;;;;;9.68;5.42;;;30.00;93.90;;;;;;1902157;74;21140;-81
2022/07/07 02:50:35;;;;;;;11.60;5.72;;;30.10;93.50;;;;;;1938408;73;21124;-81
2022/07/07 02:53:08;;;;;;;12.05;5.45;;;30.10;93.40;;;;;;1925308;74;21206;-81
2022/07/07 02:55:40;;;;;;;10.43;6.25;;;30.10;93.60;;;;;;1883425;76;21666;-81
2022/07/07 02:58:12;;;;;;;13.50;5.85;;;30.10;93.60;;;;;;1921567;74;21152;-81
2022/07/07 03:00:43;;;;;;;10.48;6.08;;;30.20;93.70;;;;;;1923984;73;21132;-81
2022/07/07 03:03:14;;;;;;;10.80;5.78;;;30.30;93.50;;;;;;1925805;73;21188;-79
2022/07/07 03:05:45;;;;;;;10.80;6.30;;;30.30;93.40;;;;;;1925102;73;21205;-80
2022/07/07 03:08:16;;;;;;;10.95;6.12;;;30.40;93.30;;;;;;1912686;74;21117;-81
2022/07/07 03:10:47;;;;;;;11.28;6.10;;;30.50;93.20;;;;;;1916204;74;21606;-81
2022/07/07 03:13:19;;;;;;;13.98;6.12;;;30.50;92.90;;;;;;1914095;74;21136;-81
2022/07/07 03:15:49;;;;;;;15.45;6.55;;;30.50;93.10;;;;;;1925819;73;21126;-80
2022/07/07 03:18:21;;;;;;;15.60;6.37;;;30.60;92.80;;;;;;1919119;74;21222;-79
2022/07/07 03:20:52;;;;;;;11.18;6.37;;;30.60;92.70;;;;;;1918669;74;21101;-80
2022/07/07 03:23:23;;;;;;;11.25;6.60;;;30.70;92.40;;;;;;1930001;73;21101;-80
2022/07/07 03:25:55;;;;;;;16.55;6.45;;;30.70;92.60;;;;;;1929351;74;21166;-80
2022/07/07 03:28:25;;;;;;;12.43;5.87;;;30.80;92.10;;;;;;1926375;74;21175;-81
2022/07/07 03:30:56;;;;;;;10.03;5.70;;;30.80;92.20;;;;;;1933143;73;21643;-82
2022/07/07 03:33:28;;;;;;;12.45;5.90;;;30.90;92.20;;;;;;1920620;73;21159;-80
2022/07/07 03:35:59;;;;;;;15.35;7.05;;;30.90;92.30;;;;;;1921671;74;21129;-80
2022/07/07 03:38:30;;;;;;;10.10;5.55;;;31.00;92.10;;;;;;1922565;74;21161;-80
2022/07/07 03:41:01;;;;;;;11.28;5.97;;;31.00;92.10;;;;;;1926729;74;21108;-82
2022/07/07 03:43:32;;;;;;;11.97;5.85;;;31.10;91.70;;;;;;1925086;73;21598;-80
2022/07/07 03:46:03;;;;;;;10.68;6.00;;;31.10;91.60;;;;;;1924698;73;21164;-79
2022/07/07 03:48:34;;;;;;;12.10;6.12;;;31.20;91.50;;;;;;1919008;73;21139;-80
2022/07/07 03:51:06;;;;;;;10.30;5.37;;;31.30;91.30;;;;;;1921764;74;21172;-81
2022/07/07 03:53:37;;;;;;;10.82;4.97;;;31.30;91.10;;;;;;1916500;72;21137;-81
2022/07/07 03:56:08;;;;;;;11.88;5.30;;;31.40;91.10;;;;;;1923736;74;21124;-81
2022/07/07 03:58:39;;;;;;;11.68;5.55;;;31.40;90.70;;;;;;1910383;73;21128;-81
2022/07/07 04:01:10;;;;;;;9.63;5.30;;;31.50;90.70;;;;;;1918497;74;21662;-82
2022/07/07 04:03:42;;;;;;;10.72;5.05;;;31.50;90.90;;;;;;1918208;74;21123;-81
2022/07/07 04:06:13;;;;;;;10.45;4.87;;;31.60;90.60;;;;;;1879494;75;21191;-81
2022/07/07 04:08:44;;;;;;;9.48;5.40;;;31.60;90.60;;;;;;1943652;72;21185;-80
2022/07/07 04:11:15;;;;;;;9.25;4.53;;;31.50;90.60;;;;;;1930077;73;21090;-80
2022/07/07 04:13:46;;;;;;;13.60;5.25;;;31.50;90.50;;;;;;1920627;74;21559;-81
2022/07/07 04:16:17;;;;;;;7.62;4.65;;;31.50;90.70;;;;;;1881627;75;21230;-80
2022/07/07 04:18:48;;;;;;;11.35;5.12;;;31.50;90.40;;;;;;1911059;74;21071;-82
2022/07/07 04:21:19;;;;;;;7.95;4.60;;;31.40;90.40;;;;;;1912233;74;21132;-82
2022/07/07 04:23:50;;;;;;;11.25;5.33;;;31.40;90.70;;;;;;1900616;74;21174;-78
2022/07/07 04:26:21;;;;;;;11.90;5.12;;;31.50;90.50;;;;;;1915795;74;21135;-79
2022/07/07 04:28:52;;;;;;;8.93;5.60;;;31.50;90.80;;;;;;1886315;75;21831;-80
2022/07/07 04:31:24;;;;;;;10.13;5.60;;;31.50;90.70;;;;;;1918571;74;21239;-80
2022/07/07 04:33:55;;;;;;;11.48;5.17;;;31.60;90.60;;;;;;1903219;74;21526;-80
2022/07/07 04:36:26;;;;;;;10.05;4.55;;;31.60;90.80;;;;;;1899482;74;21124;-80
2022/07/07 04:38:57;;;;;;;9.95;4.97;;;31.60;90.60;;;;;;1894832;74;21147;-80
2022/07/07 04:41:28;;;;;;;12.07;5.20;;;31.70;90.30;;;;;;1915462;74;21152;-81
2022/07/07 04:43:59;;;;;;;9.65;5.08;;;31.70;90.40;;;;;;1900080;75;21166;-81
2022/07/07 04:46:30;;;;;;;8.40;4.83;;;31.80;90.20;;;;;;1915390;73;21054;-80
2022/07/07 04:49:01;;;;;;;9.80;5.08;;;31.80;90.20;;;;;;1922668;73;21141;-80
2022/07/07 04:51:32;;;;;;;13.98;4.90;;;31.90;90.40;;;;;;1915527;74;21150;-80
2022/07/07 04:54:03;;;;;;;8.78;4.67;;;31.90;90.20;;;;;;1937271;73;21080;-80
2022/07/07 04:56:34;;;;;;;11.53;4.80;;;32.00;90.00;;;;;;1929834;73;21155;-81
2022/07/07 04:59:05;;;;;;;10.15;4.17;;;32.20;88.90;;;;;;1901916;74;21118;-81
2022/07/07 05:01:36;;;;;;;11.20;4.53;;;32.20;88.50;;;;;;1931984;74;21150;-81
2022/07/07 05:04:08;;;;;;;15.48;4.75;;;32.30;89.50;;;;;;1908529;74;21133;-81
2022/07/07 05:06:39;;;;;;;10.23;4.08;;;32.30;88.40;;;;;;1910857;74;21086;-80
2022/07/07 05:09:10;;;;;;;7.80;4.33;;;32.40;88.10;;;;;;1914782;74;21073;-80
2022/07/07 05:11:41;;;;;;;6.83;4.35;;;32.40;87.70;;;;;;1914919;74;21194;-80
2022/07/07 05:14:13;;;;;;;8.58;4.03;;;32.50;86.90;;;;;;1909948;73;21607;-80
2022/07/07 05:16:44;;;;;;;10.35;4.22;;;32.50;86.20;;;;;;1912011;74;21152;-80
2022/07/07 05:19:16;;;;;;;8.80;4.55;;;32.50;86.60;;;;;;1895852;75;21139;-81
2022/07/07 05:21:47;;;;;;;7.83;3.67;;;32.40;86.80;;;;;;1940943;73;21236;-82
2022/07/07 05:24:18;;;;;;;6.90;4.12;;;32.40;86.60;;;;;;1894751;75;21093;-82
2022/07/07 05:26:49;;;;;;;8.35;3.98;;;32.40;86.70;;;;;;1925173;73;21137;-81
2022/07/07 05:29:20;;;;;;;9.43;4.37;;;32.40;87.10;;;;;;1942713;72;21135;-81
2022/07/07 05:31:51;;;;;;;8.75;4.15;;;32.40;87.90;;;;;;1893246;75;21060;-80
2022/07/07 05:34:22;;;;;;;7.72;3.85;;;32.40;87.70;;;;;;1917872;74;21136;-80
2022/07/07 05:36:53;;;;;;;8.05;3.95;;;32.50;87.90;;;;;;1911770;74;21610;-81
2022/07/07 05:39:24;;;;;;;11.38;3.83;;;32.60;86.90;;;;;;1892849;75;21180;-81
2022/07/07 05:41:56;;;;;;;9.78;3.83;;;32.60;87.40;;;;;;1918926;74;21134;-79
2022/07/07 05:44:27;;;;;;;7.53;4.10;;;32.70;86.40;;;;;;1915955;74;21158;-79
2022/07/07 05:46:58;;;;;;;7.15;3.60;;;32.80;86.40;;;;;;1891829;74;21225;-80
2022/07/07 05:49:29;;;;;;;12.37;3.80;;;33.00;87.60;;;;;;1916970;74;21131;-81
2022/07/07 05:52:00;;;;;;;8.70;4.03;;;33.00;85.80;;;;;;1919109;74;21149;-82
2022/07/07 05:54:31;;;;;;;6.83;3.65;;;33.20;86.10;;;;;;1915980;74;21163;-79
2022/07/07 05:57:03;;;;;;;8.15;3.85;;;33.20;84.70;;;;;;1914345;74;21131;-81
2022/07/07 05:59:34;;;;;;;8.08;3.80;;;33.30;85.10;;;;;;1906758;75;21148;-80
2022/07/07 06:02:06;;;;;;;9.90;3.58;;;33.30;84.10;;;;;;1910906;74;21094;-81
2022/07/07 06:04:37;;;;;;;7.40;4.12;;;33.30;83.50;;;;;;1868355;75;21221;-79
2022/07/07 06:07:08;;;;;;;10.82;4.00;;;33.30;83.40;;;;;;1932935;73;21130;-80
2022/07/07 06:09:39;;;;;;;8.40;3.52;;;33.30;83.20;;;;;;1896390;75;21076;-80
2022/07/07 06:12:10;;;;;;;9.20;3.67;;;33.30;83.40;;;;;;1906220;73;21237;-80
2022/07/07 06:14:41;;;;;;;7.42;3.52;;;33.30;83.00;;;;;;1919014;73;21125;-80
2022/07/07 06:17:12;;;;;;;9.10;2.92;;;33.30;83.30;;;;;;1924044;73;21780;-81
2022/07/07 06:19:43;;;;;;;7.75;3.95;;;33.30;84.10;;;;;;1918558;73;21659;-81
2022/07/07 06:22:14;;;;;;;11.48;4.33;;;33.30;83.00;;;;;;1915728;73;21171;-82
2022/07/07 06:24:45;;;;;;;9.40;3.72;;;33.30;83.00;;;;;;1939373;73;21520;-81
2022/07/07 06:27:16;;;;;;;9.08;3.40;;;33.20;81.90;;;;;;1930311;73;21147;-80
2022/07/07 06:29:48;;;;;;;5.17;3.05;;;33.10;82.80;;;;;;1919647;73;21129;-81
2022/07/07 06:32:19;;;;;;;6.80;4.10;;;33.10;82.30;;;;;;1907399;73;21196;-81
2022/07/07 06:34:49;;;;;;;7.92;4.40;;;33.10;83.30;;;;;;1931133;73;21136;-80
2022/07/07 06:37:20;;;;;;;8.50;3.90;;;33.10;82.70;;;;;;1925816;73;21135;-79
2022/07/07 06:39:51;;;;;;;6.12;3.60;;;33.10;81.90;;;;;;1904756;75;21222;-80
2022/07/07 06:42:22;;;;;;;8.85;3.98;;;33.10;81.00;;;;;;1880364;75;21177;-82
2022/07/07 06:44:53;;;;;;;6.20;3.20;;;33.00;82.10;;;;;;1895667;74;21099;-82
2022/07/07 06:47:24;;;;;;;6.80;3.20;;;33.00;82.50;;;;;;1882494;75;21141;-81
2022/07/07 06:49:55;;;;;;;5.83;2.65;;;33.00;81.90;;;;;;1913948;75;21160;-80
2022/07/07 06:52:26;;;;;;;11.50;3.55;;;32.90;81.30;;;;;;1899287;73;21142;-79
2022/07/07 06:54:57;;;;;;;5.30;2.35;;;32.90;81.80;;;;;;1906866;75;21094;-81
2022/07/07 06:57:28;;;;;;;5.62;2.72;;;32.90;81.70;;;;;;1890721;73;21137;-79
2022/07/07 06:59:59;;;;;;;6.00;2.47;;;32.90;81.00;;;;;;1871019;75;21627;-81
2022/07/07 07:02:30;;;;;;;5.05;2.20;;;32.90;80.80;;;;;;1871964;73;21683;-82
2022/07/07 07:05:01;;;;;;;4.78;2.52;;;32.90;80.40;;;;;;1913816;73;21591;-81
2022/07/07 07:07:33;;;;;;;6.10;2.40;;;32.80;80.80;;;;;;1886365;75;21823;-80
2022/07/07 07:10:05;;;;;;;6.72;2.50;;;32.80;80.30;;;;;;1894707;75;21166;-80
2022/07/07 07:12:36;;;;;;;4.92;2.42;;;32.80;80.40;;;;;;1880126;75;21105;-81
2022/07/07 07:15:07;;;;;;;11.28;3.58;;;32.80;80.20;;;;;;1889872;73;21568;-82
2022/07/07 07:17:39;;;;;;;5.80;3.00;;;32.90;82.90;;;;;;1880882;75;21682;-80
2022/07/07 07:20:12;;;;;;;6.72;3.17;;;32.70;85.20;;;;;;1884590;75;21168;-81
2022/07/07 07:22:43;;;;;;;8.90;3.33;;;32.50;85.90;;;;;;1893248;75;21139;-82
2022/07/07 07:25:16;;;;;;;5.67;2.80;;;32.20;86.80;;;;;;1919590;74;21093;-81
2022/07/07 07:27:47;;;;;;;7.20;3.55;;;32.10;86.10;;;;;;1911043;74;21627;-81
2022/07/07 07:30:18;;;;;;;6.35;2.77;;;31.90;86.10;;;;;;1910143;74;21133;-80
2022/07/07 07:32:51;;;;;;;6.62;3.50;;;31.80;86.30;;;;;;1911493;74;21085;-81
2022/07/07 07:35:23;;;;;;;5.35;2.40;;;31.70;86.50;;;;;;1934792;73;21155;-81
2022/07/07 07:37:54;;;;;;;4.37;2.40;;;31.80;86.80;;;;;;1907671;74;21193;-80
2022/07/07 07:40:26;;;;;;;4.78;2.22;;;31.70;87.00;;;;;;1902483;73;21145;-80
2022/07/07 07:42:57;;;;;;;4.50;2.08;;;31.80;86.90;;;;;;1911792;74;21052;-81
2022/07/07 07:45:28;;;;;;;4.55;2.20;;;31.70;87.40;;;;;;1871938;75;21211;-81
2022/07/07 07:48:01;;;;;;;7.08;2.50;;;31.70;87.60;;;;;;1898669;74;21115;-80
2022/07/07 07:50:32;;;;;;;5.70;2.72;;;31.70;87.90;;;;;;1877256;75;21133;-80
2022/07/07 07:53:05;;;;;;;5.35;2.58;;;31.70;87.90;;;;;;1876972;75;21218;-81
2022/07/07 07:55:36;;;;;;;4.67;2.30;;;31.50;88.40;;;;;;1849600;75;21221;-82
2022/07/07 07:58:07;;;;;;;6.15;2.15;;;31.40;88.90;;;;;;1919616;74;21484;-81
2022/07/07 08:00:39;;;;;;;3.92;2.05;;;31.30;88.80;;;;;;1931274;73;21272;-80
2022/07/07 08:03:10;;;;;;;7.00;2.37;;;31.20;89.60;;;;;;1887117;74;21081;-82
2022/07/07 08:05:41;;;;;;;4.33;1.85;;;31.10;90.10;;;;;;1926815;74;21073;-81
2022/07/07 08:08:13;;;;;;;4.60;1.72;;;31.00;90.30;;;;;;1928981;73;21174;-81
2022/07/07 08:10:44;;;;;;;5.83;2.00;;;30.90;90.20;;;;;;1902732;74;21650;-81
2022/07/07 08:13:15;;;;;;;6.03;2.15;;;30.80;90.10;;;;;;1934488;73;21166;-80
2022/07/07 08:15:46;;;;;;;4.12;2.02;;;30.60;90.40;;;;;;1931038;73;21085;-80
2022/07/07 08:18:17;;;;;;;5.33;1.30;;;30.30;90.30;;;;;;1883444;75;21619;-80
2022/07/07 08:20:48;;;;;;;5.53;1.70;;;30.10;90.80;;;;;;1937157;73;21663;-80
2022/07/07 08:23:19;;;;;;;5.20;1.50;;;29.80;90.80;;;;;;1923390;73;21091;-80
2022/07/07 08:25:51;;;;;;;5.12;1.20;;;29.60;91.50;;;;;;1936718;73;21147;-80
2022/07/07 08:28:21;;;;;;;3.42;1.35;;;29.60;91.60;;;;;;1919359;73;21079;-80
2022/07/07 08:30:53;;;;;;;5.40;1.60;;;29.50;92.10;;;;;;1910033;74;21093;-79
2022/07/07 08:33:24;;;;;;;4.45;1.62;;;29.50;91.70;;;;;;1914526;74;21196;-80
2022/07/07 08:35:55;;;;;;;3.42;1.30;;;29.50;91.90;;;;;;1937044;73;21617;-79
2022/07/07 08:38:26;;;;;;;2.60;1.20;;;29.60;91.80;;;;;;1947001;72;21827;-78
2022/07/07 08:40:57;;;;;;;4.22;1.45;;;29.60;92.00;;;;;;1898165;74;21055;-79
2022/07/07 08:43:29;;;;;;;5.25;1.57;;;29.60;91.90;;;;;;1898162;74;21209;-80
2022/07/07 08:46:01;;;;;;;4.85;1.75;;;29.60;92.00;;;;;;1902204;74;21292;-80
2022/07/07 08:48:32;;;;;;;6.03;1.67;;;29.60;91.90;;;;;;1896606;74;21080;-79
2022/07/07 08:51:22;;;;;;;3.90;1.30;;;29.70;91.70;;;;;;1938440;73;21224;-80
2022/07/07 08:53:56;;;;;;;1.98;1.05;;;29.70;91.40;;;;;;1927226;73;21784;-80
2022/07/07 08:56:45;;;;;;;3.55;1.30;;;29.70;91.20;;;;;;1880882;75;21232;-79
2022/07/07 08:59:17;;;;;;;2.65;0.82;;;29.70;91.40;;;;;;1911953;74;21128;-83
2022/07/07 09:02:01;;;;;;;4.37;1.22;;;29.70;91.40;;;;;;1914512;74;21298;-78
2022/07/07 09:04:42;;;;;;;3.72;1.60;;;29.60;92.00;;;;;;1906055;73;21105;-80
2022/07/07 09:07:33;;;;;;;8.73;1.62;;;29.40;92.50;;;;;;1920394;74;21148;-80
2022/07/07 09:10:17;;;;;;;4.60;1.42;;;29.30;92.90;;;;;;1911707;74;22313;-79
2022/07/07 09:12:50;;;;;;;3.67;1.15;;;29.10;93.00;;;;;;1904950;74;21666;-79
2022/07/07 09:15:22;;;;;;;3.77;1.72;;;29.10;93.20;;;;;;1906789;74;21128;-80
2022/07/07 09:17:57;;;;;;;5.15;1.60;;;29.00;93.40;;;;;;1913795;74;21178;-80
2022/07/07 09:20:47;;;;;;;5.70;1.60;;;29.00;93.30;;;;;;1913042;74;21156;-78
2022/07/07 09:23:30;;;;;;;3.62;1.12;;;29.10;93.20;;;;;;1917984;74;21156;-79
2022/07/07 09:26:20;;;;;;;5.10;1.30;;;29.10;92.80;;;;;;1910021;74;21228;-79
2022/07/07 09:28:58;;;;;;;5.60;1.45;;;29.10;93.00;;;;;;1901084;74;21668;-81
2022/07/07 09:31:36;;;;;;;5.50;1.42;;;29.00;93.10;;;;;;1899490;74;21074;-80
2022/07/07 09:34:09;;;;;;;1.82;1.10;;;29.00;93.10;;;;;;1878360;74;21214;-80
2022/07/07 09:39:27;;;;;;;4.42;1.50;;;29.00;93.30;;;;;;1897835;73;21146;-80
2022/07/07 09:42:01;;;;;;;3.77;1.60;;;29.00;93.30;;;;;;1902030;74;21163;-79
2022/07/07 09:44:35;;;;;;;2.00;0.88;;;29.00;93.40;;;;;;1907184;74;21615;-79
2022/07/07 09:47:08;;;;;;;2.75;1.10;;;29.00;93.30;;;;;;1924586;73;21136;-79
2022/07/07 09:50:08;;;;;;;6.60;1.40;;;29.00;93.10;;;;;;1894135;74;21209;-80
2022/07/07 09:52:42;;;;;;;4.90;1.98;;;28.90;93.30;;;;;;1883394;75;21164;-80
2022/07/07 09:55:34;;;;;;;3.60;1.10;;;28.90;93.50;;;;;;1883048;75;21241;-79
2022/07/07 09:58:09;;;;;;;5.08;1.40;;;28.90;93.20;;;;;;1875766;75;21670;-80
2022/07/07 10:00:54;;;;;;;3.83;1.67;;;28.90;93.30;;;;;;1896589;75;21241;-80
2022/07/07 10:03:26;;;;;;;3.08;1.20;;;28.90;93.20;;;;;;1884801;75;21439;-79
2022/07/07 10:06:02;;;;;;;6.85;1.77;;;28.80;93.30;;;;;;1896902;74;21158;-78
2022/07/07 10:08:35;;;;;;;8.83;1.77;;;28.80;93.70;;;;;;1860209;76;21170;-80
2022/07/07 10:11:08;;;;;;;3.25;1.20;;;28.80;93.20;;;;;;1896334;74;21181;-80
2022/07/07 10:13:40;;;;;;;5.95;1.60;;;28.90;93.10;;;;;;1866272;75;21153;-79
2022/07/07 10:16:11;;;;;;;5.05;1.57;;;28.80;93.10;;;;;;1890986;74;21123;-79
2022/07/07 10:18:44;;;;;;;5.42;1.65;;;28.90;93.00;;;;;;1874675;75;21253;-80
2022/07/07 10:21:16;;;;;;;4.47;1.50;;;28.90;93.20;;;;;;1861577;75;21090;-80
2022/07/07 10:23:48;;;;;;;3.20;1.40;;;29.00;92.60;;;;;;1907651;74;21120;-80
2022/07/07 10:26:22;;;;;;;3.27;1.72;;;29.00;92.60;;;;;;1911081;75;21190;-80
2022/07/07 10:28:56;;;;;;;4.40;1.40;;;29.10;92.60;;;;;;1885828;75;21148;-79
2022/07/07 10:31:31;;;;;;;3.17;1.45;;;29.10;92.70;;;;;;1908844;75;21136;-79
2022/07/07 10:34:03;;;;;;;5.70;1.90;;;29.20;92.70;;;;;;1895026;75;21123;-81
2022/07/07 10:36:36;;;;;;;5.10;1.70;;;29.20;92.70;;;;;;1914442;74;21212;-80
2022/07/07 10:39:08;;;;;;;4.25;1.42;;;29.20;92.70;;;;;;1896332;74;21224;-79
2022/07/07 10:41:41;;;;;;;6.22;3.45;;;29.20;92.70;;;;;;1861942;75;21136;-80
2022/07/07 10:44:12;;;;;;;8.15;3.65;;;29.20;92.90;;;;;;1883169;75;21073;-80
2022/07/07 10:46:45;;;;;;;5.33;2.62;;;29.20;93.10;;;;;;1875432;75;21151;-80
2022/07/07 10:49:16;;;;;;;4.70;1.70;;;29.20;93.10;;;;;;1887524;75;21640;-79
2022/07/07 10:51:50;;;;;;;3.83;1.87;;;29.20;93.60;;;;;;1862327;75;21229;-80
2022/07/07 10:54:23;;;;;;;5.70;2.33;;;29.10;93.30;;;;;;1912604;74;21124;-79
2022/07/07 10:56:58;;;;;;;5.10;2.37;;;29.10;93.40;;;;;;1905008;75;21468;-79
2022/07/07 10:59:29;;;;;;;3.72;1.82;;;29.00;93.30;;;;;;1905141;72;21155;-79
2022/07/07 11:02:02;;;;;;;4.45;1.90;;;29.00;93.30;;;;;;1888839;75;21108;-80
2022/07/07 11:04:36;;;;;;;4.62;2.75;;;29.10;93.20;;;;;;1899227;75;21200;-80
2022/07/07 11:07:09;;;;;;;5.00;2.20;;;29.10;93.10;;;;;;1901501;74;21103;-79
2022/07/07 11:09:42;;;;;;;3.42;1.80;;;29.10;93.00;;;;;;1887178;75;21163;-79
2022/07/07 11:12:16;;;;;;;6.78;2.42;;;29.10;93.00;;;;;;1878051;75;21179;-79
2022/07/07 11:14:47;;;;;;;6.42;2.60;;;29.10;93.00;;;;;;1895851;75;21127;-79
2022/07/07 11:17:20;;;;;;;6.78;2.25;;;29.20;93.00;;;;;;1896962;74;21097;-80
2022/07/07 11:19:52;;;;;;;9.90;4.85;;;29.10;93.10;;;;;;1906150;73;21048;-80
2022/07/07 11:22:22;;;;;;;9.63;5.10;;;29.10;92.90;;;;;;1894133;75;21134;-80
2022/07/07 11:24:53;;;;;;;9.15;5.00;;;29.10;93.00;;;;;;1890156;75;21077;-80
2022/07/07 11:27:27;;;;;;;7.47;3.35;;;29.10;93.10;;;;;;1874411;75;21096;-80
2022/07/07 11:29:59;;;;;;;9.30;2.87;;;29.10;93.10;;;;;;1913710;75;21155;-79
2022/07/07 11:32:32;;;;;;;8.30;2.50;;;29.00;93.10;;;;;;1885600;75;21222;-80
2022/07/07 11:35:05;;;;;;;5.45;2.17;;;29.00;93.10;;;;;;1915105;74;21801;-81
2022/07/07 11:37:39;;;;;;;4.78;1.87;;;29.00;93.20;;;;;;1906599;74;21076;-80
2022/07/07 11:40:13;;;;;;;4.35;1.20;;;28.90;93.20;;;;;;1877910;75;21095;-81
2022/07/07 11:42:45;;;;;;;4.50;1.62;;;28.90;93.10;;;;;;1879040;76;21176;-80
2022/07/07 11:45:18;;;;;;;7.83;2.10;;;28.90;93.20;;;;;;1874550;75;21192;-80
2022/07/07 11:47:50;;;;;;;3.83;1.70;;;28.90;93.10;;;;;;1914695;74;21178;-80
2022/07/07 11:50:21;;;;;;;4.00;1.72;;;28.90;93.10;;;;;;1883959;75;21134;-80
2022/07/07 11:52:55;;;;;;;2.95;1.80;;;28.80;93.00;;;;;;1888453;75;21647;-79
2022/07/07 11:55:27;;;;;;;4.45;2.20;;;28.80;93.10;;;;;;1917622;74;21143;-80
2022/07/07 11:58:00;;;;;;;5.87;2.00;;;28.80;93.10;;;;;;1924586;73;21237;-80
2022/07/07 12:00:34;;;;;;;5.10;1.60;;;28.90;93.20;;;;;;1911912;75;21160;-80
2022/07/07 12:03:07;;;;;;;6.67;2.35;;;28.90;93.00;;;;;;1896503;75;21064;-79
2022/07/07 12:05:43;;;;;;;5.92;3.17;;;28.90;93.10;;;;;;1900986;75;21192;-78
2022/07/07 12:08:14;;;;;;;7.30;3.47;;;28.90;93.40;;;;;;1900701;75;21152;-80
2022/07/07 12:10:51;;;;;;;7.87;3.37;;;28.90;93.50;;;;;;1927503;73;21040;-80
2022/07/07 12:13:27;;;;;;;6.45;3.00;;;28.90;93.80;;;;;;1919245;73;21201;-79
2022/07/07 12:16:02;;;;;;;4.97;3.22;;;28.90;93.60;;;;;;1929385;73;21616;-78
2022/07/07 12:18:35;;;;;;;6.47;3.50;;;28.90;93.70;;;;;;1927203;73;21620;-80
2022/07/07 12:21:09;;;;;;;7.28;3.37;;;28.90;93.80;;;;;;1888227;75;21563;-79
2022/07/07 12:23:43;;;;;;;5.92;2.77;;;28.90;93.80;;;;;;1886031;74;21162;-79
2022/07/07 12:26:16;;;;;;;6.75;2.90;;;28.80;93.60;;;;;;1862666;76;21220;-79
2022/07/07 12:28:47;;;;;;;5.67;3.27;;;28.90;93.30;;;;;;1922657;73;21083;-79
2022/07/07 12:31:24;;;;;;;5.17;2.65;;;28.90;93.60;;;;;;1928011;74;21134;-79
2022/07/07 12:33:55;;;;;;;5.10;2.75;;;28.90;93.00;;;;;;1894206;74;21176;-81
2022/07/07 12:36:26;;;;;;;5.60;2.40;;;28.80;93.00;;;;;;1869380;75;21122;-80
2022/07/07 12:39:00;;;;;;;5.12;2.55;;;28.80;93.00;;;;;;1888696;74;21086;-80
2022/07/07 12:41:33;;;;;;;6.33;2.60;;;28.80;93.00;;;;;;1914309;74;21249;-80
2022/07/07 12:44:06;;;;;;;6.35;3.30;;;28.80;93.00;;;;;;1914087;73;21385;-79
2022/07/07 12:46:37;;;;;;;6.80;3.80;;;28.90;93.10;;;;;;1933146;73;21108;-80
2022/07/07 12:49:08;;;;;;;7.10;3.20;;;28.90;93.60;;;;;;1926532;73;21131;-80
2022/07/07 12:51:42;;;;;;;5.85;3.35;;;28.80;93.00;;;;;;1933218;73;21076;-79
2022/07/07 12:54:15;;;;;;;9.65;4.90;;;28.80;93.20;;;;;;1948873;73;21158;-79
2022/07/07 12:56:46;;;;;;;12.55;5.33;;;28.90;93.70;;;;;;1908724;73;21118;-79
2022/07/07 12:59:21;;;;;;;11.60;5.95;;;28.80;94.00;;;;;;1890066;74;21497;-80
2022/07/07 13:01:54;;;;;;;8.25;5.25;;;28.80;94.20;;;;;;1862801;75;21128;-80
2022/07/07 13:04:26;;;;;;;10.93;5.08;;;28.80;94.20;;;;;;1920887;73;21607;-80
2022/07/07 13:06:57;;;;;;;8.30;3.65;;;28.80;94.20;;;;;;1904848;73;21611;-80
2022/07/07 13:09:29;;;;;;;5.47;2.50;;;28.80;93.90;;;;;;1910803;73;21120;-80
2022/07/07 13:12:01;;;;;;;6.85;3.80;;;28.80;93.60;;;;;;1886290;75;21207;-79